^^
Saratoga-Weather Station Historical Data
Daily Summary for July 3, 2021 Units:  English    Metric   Both
Daily Weekly Monthly Yearly Custom
  High: Low: Average:
Temperature: 65.5 °F 55.9 °F 59.9 °F
Dew Point: 61.5 °F 54.5 °F 57.6 °F
Humidity: 97% 82% 92%
Wind Speed: 9mph 0mph 1.6mph
Wind Gust: 11mph - -
Wind- - SW
Pressure: 30 in 29.9 in -
Precipitation: 0.79 in    
Historical Graphs
 
 
Tabular Data for July 3, 2021
Time Temperature Dew Point Pressure Wind Wind Speed Wind Gust Humidity Rainfall Rate (Hourly) solar
00:03 58.5 °F 56.7 °F 30 in Calm     94% 0.04 in 0 W/m2
00:08 58.5 °F 56.7 °F 30 in West 0.9 mph 2 mph 94% 0.04 in 0 W/m2
00:13 58.5 °F 56.7 °F 30 in Calm   1 mph 94% 0.04 in 0 W/m2
00:18 58.5 °F 56.7 °F 30 in Calm     94% 0.04 in 0 W/m2
00:23 58.3 °F 56.5 °F 30 in Calm     94% 0.04 in 0 W/m2
00:28 58.3 °F 56.5 °F 30 in Calm     94% 0.04 in 0 W/m2
00:33 58.3 °F 56.5 °F 30 in Calm     94% 0.04 in 0 W/m2
00:38 58.3 °F 56.5 °F 30 in Calm     94% 0.04 in 0 W/m2
00:44 58.1 °F 56.3 °F 30 in Calm   1 mph 94% 0.03 in 0 W/m2
00:49 58.1 °F 56.3 °F 30 in Calm     94% 0.01 in 0 W/m2
00:54 57.9 °F 56.1 °F 30 in Calm     94% 0 in 0 W/m2
00:59 57.9 °F 56.5 °F 29.9 in Calm     95% 0 in 0 W/m2
01:04 57.9 °F 56.5 °F 29.9 in Calm     95% 0 in 0 W/m2
01:09 57.9 °F 56.5 °F 29.9 in Calm     95% 0 in 0 W/m2
01:14 57.9 °F 56.5 °F 29.9 in Calm     95% 0 in 0 W/m2
01:19 57.9 °F 56.5 °F 29.9 in Calm     95% 0 in 0 W/m2
01:24 57.9 °F 56.5 °F 29.9 in Calm     95% 0 in 0 W/m2
01:41 57.7 °F 56.3 °F 29.9 in Calm     95% 0 in 0 W/m2
01:46 57.7 °F 56.3 °F 29.9 in Calm     95% 0 in 0 W/m2
01:51 57.7 °F 56.3 °F 29.9 in Calm     95% 0 in 0 W/m2
01:56 57.6 °F 56.1 °F 29.9 in Calm     95% 0 in 0 W/m2
02:13 57 °F 55.6 °F 29.9 in SSW 0.9 mph 2 mph 95% 0 in 0 W/m2
02:18 57 °F 55.6 °F 29.9 in SSW 0.9 mph 2 mph 95% 0 in 0 W/m2
02:23 56.8 °F 55.4 °F 29.9 in Calm     95% 0 in 0 W/m2
02:28 56.8 °F 55.4 °F 29.9 in Calm   2 mph 95% 0 in 0 W/m2
02:33 56.8 °F 55.4 °F 29.9 in Calm     95% 0 in 0 W/m2
02:38 56.7 °F 55.2 °F 29.9 in Calm     95% 0 in 0 W/m2
02:43 56.7 °F 55.2 °F 29.9 in Calm     95% 0 in 0 W/m2
02:48 56.7 °F 55.2 °F 29.9 in Calm     95% 0 in 0 W/m2
02:53 56.7 °F 55.6 °F 29.9 in Calm     96% 0 in 0 W/m2
02:58 56.7 °F 55.6 °F 29.9 in Calm     96% 0 in 0 W/m2
03:03 56.7 °F 55.6 °F 29.9 in Calm     96% 0 in 0 W/m2
03:09 56.7 °F 55.6 °F 29.9 in Calm     96% 0 in 0 W/m2
03:14 56.5 °F 55.4 °F 29.9 in Calm     96% 0 in 0 W/m2
03:19 56.5 °F 55 °F 29.9 in Calm     95% 0 in 0 W/m2
03:24 56.3 °F 54.9 °F 29.9 in Calm     95% 0 in 0 W/m2
03:29 56.1 °F 55 °F 29.9 in Calm     96% 0 in 0 W/m2
03:34 56.1 °F 55 °F 29.9 in Calm   1 mph 96% 0 in 0 W/m2
03:39 56.1 °F 55 °F 29.9 in Calm     96% 0 in 0 W/m2
03:44 55.9 °F 54.9 °F 29.9 in Calm   1 mph 96% 0 in 0 W/m2
03:49 55.9 °F 54.9 °F 29.9 in Calm     96% 0.01 in 0 W/m2
03:54 55.9 °F 54.9 °F 29.9 in Calm     96% 0.01 in 0 W/m2
03:59 55.9 °F 54.9 °F 29.9 in Calm     96% 0.01 in 0 W/m2
04:04 55.9 °F 54.9 °F 29.9 in Calm     96% 0.01 in 0 W/m2
04:09 55.9 °F 54.9 °F 29.9 in Calm   2 mph 96% 0.01 in 0 W/m2
04:14 55.9 °F 54.9 °F 29.9 in Calm     96% 0.01 in 0 W/m2
04:19 55.9 °F 54.9 °F 29.9 in Calm   2 mph 96% 0.01 in 0 W/m2
04:24 55.9 °F 54.9 °F 29.9 in Calm     96% 0.01 in 0 W/m2
04:29 55.9 °F 54.9 °F 29.9 in Calm     96% 0.01 in 0 W/m2
04:34 55.9 °F 54.9 °F 29.9 in Calm     96% 0.01 in 0 W/m2
04:39 56.1 °F 55 °F 29.9 in Calm     96% 0.01 in 0 W/m2
04:44 56.1 °F 55 °F 29.9 in Calm     96% 0.01 in 0 W/m2
04:49 56.1 °F 55 °F 29.9 in Calm     96% 0 in 0 W/m2
04:54 56.1 °F 55 °F 29.9 in Calm     96% 0 in 0 W/m2
04:59 56.1 °F 55 °F 29.9 in Calm     96% 0 in 0 W/m2
05:18 56.1 °F 55 °F 29.9 in Calm     96% 0 in 0 W/m2
05:23 56.3 °F 55.2 °F 29.9 in Calm     96% 0 in 0 W/m2
05:28 56.3 °F 55.2 °F 29.9 in Calm   1 mph 96% 0 in 0 W/m2
05:33 56.5 °F 55.4 °F 29.9 in Calm     96% 0 in 0 W/m2
05:38 56.5 °F 55.4 °F 29.9 in SSW 0.9 mph 2 mph 96% 0 in 0 W/m2
05:43 56.5 °F 55.4 °F 29.9 in NE 2.9 mph 3 mph 96% 0 in 0 W/m2
05:48 56.7 °F 55.6 °F 29.9 in ENE 2.9 mph 5 mph 96% 0.01 in 0 W/m2
05:53 56.8 °F 55.9 °F 29.9 in WSW 2 mph 4 mph 97% 0.02 in 0 W/m2
05:58 57 °F 56.1 °F 29.9 in NNE 2 mph 5 mph 97% 0.03 in 0 W/m2
06:03 57 °F 55.9 °F 29.9 in Calm   5 mph 96% 0.04 in 0 W/m2
06:08 57.2 °F 56.1 °F 29.9 in Calm   5 mph 96% 0.05 in 0 W/m2
06:13 57.4 °F 56.3 °F 29.9 in West 2.9 mph 5 mph 96% 0.06 in 0 W/m2
06:18 57.6 °F 56.5 °F 29.9 in NNW 4.9 mph 11 mph 96% 0.09 in 0 W/m2
06:23 57.6 °F 56.1 °F 29.9 in NW 4.9 mph 7 mph 95% 0.13 in 0 W/m2
06:28 57.4 °F 55.9 °F 29.9 in WNW 4.9 mph 8 mph 95% 0.14 in 0 W/m2
06:33 57.4 °F 55.6 °F 29.9 in NW 2.9 mph 4 mph 94% 0.16 in 0 W/m2
06:38 57.6 °F 55.8 °F 29.9 in North 0.9 mph 3 mph 94% 0.17 in 0 W/m2
06:43 57.4 °F 55.6 °F 29.9 in NW 2 mph 3 mph 94% 0.17 in 0 W/m2
06:48 57.4 °F 55.4 °F 29.9 in NW 2.9 mph 3 mph 93% 0.17 in 0 W/m2
06:53 57.4 °F 55.4 °F 29.9 in NNW 2.9 mph 3 mph 93% 0.16 in 5 W/m2
07:10 57.4 °F 55.4 °F 29.9 in Calm     93% 0.12 in 5 W/m2
07:15 57.2 °F 55.2 °F 29.9 in West 2 mph 4 mph 93% 0.1 in 0 W/m2
07:20 57.2 °F 55.2 °F 29.9 in West 6 mph 11 mph 93% 0.19 in 0 W/m2
07:25 57.4 °F 55.6 °F 29.9 in WNW 2 mph 9 mph 94% 0.31 in 5 W/m2
07:30 57.4 °F 55.6 °F 29.9 in WSW 2 mph 6 mph 94% 0.35 in 5 W/m2
07:35 57 °F 55 °F 29.9 in WSW 2 mph 9 mph 93% 0.44 in 5 W/m2
07:40 56.8 °F 54.9 °F 29.9 in West 0.9 mph 3 mph 93% 0.48 in 0 W/m2
07:59 56.1 °F 54.5 °F 29.9 in Calm     94% 0.51 in 5 W/m2
08:04 56.1 °F 54.5 °F 29.9 in ESE 0.9 mph 2 mph 94% 0.53 in 5 W/m2
08:09 56.1 °F 54.5 °F 29.9 in Calm   1 mph 94% 0.54 in 9 W/m2
08:14 56.1 °F 54.7 °F 29.9 in Calm     95% 0.54 in 16 W/m2
08:19 56.1 °F 54.7 °F 29.9 in Calm     95% 0.44 in 33 W/m2
08:24 56.3 °F 54.9 °F 29.9 in ESE 0.9 mph 1 mph 95% 0.3 in 51 W/m2
08:43 57 °F 55.9 °F 29.9 in Calm     96% 0.07 in 128 W/m2
08:48 57.4 °F 56.3 °F 29.9 in WNW 0.9 mph 5 mph 96% 0.07 in 111 W/m2
08:53 57.4 °F 56.3 °F 29.9 in West 2 mph 3 mph 96% 0.07 in 98 W/m2
08:58 57.4 °F 56.3 °F 29.9 in West 2 mph 5 mph 96% 0.06 in 84 W/m2
09:03 57.4 °F 56.3 °F 29.9 in WNW 2 mph 3 mph 96% 0.03 in 88 W/m2
09:08 57.4 °F 56.3 °F 29.9 in Calm   5 mph 96% 0.02 in 118 W/m2
09:13 57.6 °F 56.5 °F 29.9 in West 2.9 mph 3 mph 96% 0.02 in 79 W/m2
09:18 57.6 °F 56.5 °F 29.9 in West 0.9 mph 4 mph 96% 0.01 in 107 W/m2
09:23 57.6 °F 56.5 °F 29.9 in Calm   3 mph 96% 0.02 in 86 W/m2
09:28 57.6 °F 56.5 °F 29.9 in Calm   1 mph 96% 0.02 in 84 W/m2
09:33 57.7 °F 56.7 °F 29.9 in Calm   3 mph 96% 0.03 in 76 W/m2
09:47 57.9 °F 56.8 °F 29.9 in Calm     96% 0.03 in 181 W/m2
09:52 58.5 °F 57.4 °F 29.9 in ENE 1 mph 1 mph 96% 0.03 in 234 W/m2
09:57 58.6 °F 57.6 °F 29.9 in Calm   2 mph 96% 0.03 in 246 W/m2
10:02 58.6 °F 57.6 °F 29.9 in Calm   1 mph 96% 0.03 in 279 W/m2
10:07 59.2 °F 58.1 °F 29.9 in Calm   2 mph 96% 0.03 in 348 W/m2
10:12 59.4 °F 58.3 °F 29.9 in Calm     96% 0.03 in 287 W/m2
10:17 59.7 °F 58.6 °F 29.9 in ENE 0.9 mph 3 mph 96% 0.03 in 223 W/m2
10:22 59.7 °F 58.6 °F 29.9 in NE 0.9 mph 2 mph 96% 0.02 in 162 W/m2
10:27 59.9 °F 58.5 °F 29.9 in NE 2 mph 3 mph 95% 0.02 in 200 W/m2
10:32 60.1 °F 58.6 °F 29.9 in East 2 mph 3 mph 95% 0 in 220 W/m2
10:37 60.3 °F 58.8 °F 29.9 in ENE 2 mph 2 mph 95% 0 in 169 W/m2
10:42 60.4 °F 58.6 °F 29.9 in Calm   1 mph 94% 0 in 162 W/m2
10:58 61 °F 59.2 °F 29.9 in East 2.9 mph 3 mph 94% 0 in 195 W/m2
11:03 61 °F 59.2 °F 29.9 in East 2 mph 4 mph 94% 0 in 193 W/m2
11:08 60.6 °F 58.6 °F 29.9 in East 0.9 mph 6 mph 93% 0 in 181 W/m2
11:13 60.4 °F 58.5 °F 29.9 in East 2 mph 3 mph 93% 0 in 322 W/m2
11:18 60.6 °F 58.8 °F 29.9 in ENE 0.9 mph 6 mph 94% 0 in 359 W/m2
11:23 60.8 °F 59 °F 29.9 in ENE 0.9 mph 4 mph 94% 0 in 329 W/m2
11:28 61 °F 59.2 °F 29.9 in NE 0.9 mph 6 mph 94% 0 in 325 W/m2
11:45 61.3 °F 59.4 °F 29.9 in ENE 2 mph 3 mph 93% 0 in 204 W/m2
11:51 61.5 °F 59.5 °F 29.9 in East 2.9 mph 5 mph 93% 0 in 276 W/m2
11:56 61.7 °F 59.4 °F 29.9 in ENE 4.9 mph 6 mph 92% 0 in 322 W/m2
12:01 61.5 °F 58.8 °F 29.9 in East 4.9 mph 6 mph 91% 0 in 311 W/m2
12:06 61.9 °F 59.2 °F 29.9 in North 2 mph 2 mph 91% 0 in 768 W/m2
12:11 62.2 °F 59.5 °F 29.9 in NE 2 mph 7 mph 91% 0 in 267 W/m2
12:16 62.2 °F 59.2 °F 29.9 in ENE 2 mph 5 mph 90% 0 in 188 W/m2
12:21 62.2 °F 59.2 °F 29.9 in WSW 0.9 mph 7 mph 90% 0 in 130 W/m2
12:26 61.9 °F 58.6 °F 29.9 in ENE 6 mph 6 mph 89% 0 in 120 W/m2
12:31 61.7 °F 58.5 °F 29.9 in ESE 6 mph 8 mph 89% 0 in 132 W/m2
12:36 61.5 °F 58.3 °F 29.9 in ESE 0.9 mph 6 mph 89% 0 in 162 W/m2
12:41 61.5 °F 58.6 °F 29.9 in NNE 2.9 mph 8 mph 90% 0 in 186 W/m2
12:46 61.5 °F 58.6 °F 29.9 in ESE 4 mph 7 mph 90% 0 in 204 W/m2
12:51 61.7 °F 58.8 °F 29.9 in Calm   3 mph 90% 0 in 232 W/m2
12:56 62.2 °F 59.2 °F 29.9 in ESE 2 mph 4 mph 90% 0 in 424 W/m2
13:12 63.3 °F 59.7 °F 29.9 in East 4 mph 4 mph 88% 0 in 142 W/m2
13:17 63 °F 59.7 °F 29.9 in East 0.9 mph 2 mph 89% 0.02 in 111 W/m2
13:22 62.6 °F 59.4 °F 29.9 in ENE 2.9 mph 6 mph 89% 0.03 in 148 W/m2
13:27 62.2 °F 59.2 °F 29.9 in Calm   4 mph 90% 0.04 in 167 W/m2
13:32 62.1 °F 59.4 °F 29.9 in ENE 0.9 mph 3 mph 91% 0.05 in 179 W/m2
13:37 61.9 °F 59.5 °F 29.9 in WSW 0.9 mph 2 mph 92% 0.05 in 130 W/m2
13:43 61.9 °F 59.5 °F 29.9 in Calm   2 mph 92% 0.06 in 155 W/m2
13:48 62.1 °F 59.7 °F 29.9 in Calm   1 mph 92% 0.06 in 250 W/m2
13:53 62.1 °F 60.1 °F 29.9 in Calm   3 mph 93% 0.06 in 292 W/m2
13:58 62.4 °F 60.4 °F 29.9 in East 2 mph 6 mph 93% 0.06 in 272 W/m2
14:03 62.6 °F 60.6 °F 29.9 in Calm   3 mph 93% 0.06 in 236 W/m2
14:08 62.8 °F 60.1 °F 29.9 in Calm   6 mph 91% 0.06 in 207 W/m2
14:24 63.3 °F 60.6 °F 29.9 in Calm   2 mph 91% 0.02 in 810 W/m2
14:29 63.7 °F 60.4 °F 29.9 in Calm   1 mph 89% 0.02 in 339 W/m2
14:34 64.2 °F 61.5 °F 29.9 in SE 0.9 mph 4 mph 91% 0.02 in 490 W/m2
14:39 64.4 °F 61.2 °F 29.9 in NE 0.9 mph 3 mph 89% 0.02 in 540 W/m2
14:44 64.6 °F 61 °F 29.9 in NNW 2.9 mph 4 mph 88% 0 in 220 W/m2
14:49 64.6 °F 61 °F 29.9 in NNW 0.9 mph 2 mph 88% 0 in 218 W/m2
14:54 64.8 °F 61.2 °F 29.9 in Calm   4 mph 88% 0 in 167 W/m2
14:59 64.8 °F 60.4 °F 29.9 in WNW 0.9 mph 3 mph 86% 0 in 153 W/m2
15:04 64.6 °F 60.3 °F 29.9 in WNW 2.9 mph 6 mph 86% 0 in 148 W/m2
15:09 64.2 °F 60.3 °F 29.9 in WNW 2 mph 8 mph 87% 0.01 in 178 W/m2
15:14 63.9 °F 60.3 °F 29.9 in WNW 0.9 mph 4 mph 88% 0.03 in 276 W/m2
15:19 63.7 °F 60.4 °F 29.9 in Calm   8 mph 89% 0.03 in 316 W/m2
15:38 65.5 °F 60.8 °F 29.9 in WSW 6.9 mph 8 mph 85% 0.03 in 120 W/m2
15:43 64.9 °F 60.3 °F 29.9 in WNW 6.9 mph 8 mph 85% 0.03 in 67 W/m2
15:48 63.7 °F 59.4 °F 29.9 in West 4 mph 6 mph 86% 0.06 in 183 W/m2
15:53 62.8 °F 59.2 °F 29.9 in WNW 4 mph 6 mph 88% 0.06 in 260 W/m2
15:58 62.4 °F 59.4 °F 29.9 in West 4 mph 8 mph 90% 0.06 in 295 W/m2
16:03 62.4 °F 59.4 °F 29.9 in West 8.9 mph 9 mph 90% 0.06 in 459 W/m2
16:08 62.6 °F 59.5 °F 29.9 in SW 4.9 mph 7 mph 90% 0.06 in 302 W/m2
16:13 62.6 °F 59.4 °F 29.9 in WNW 4 mph 9 mph 89% 0.03 in 248 W/m2
16:18 62.4 °F 58.8 °F 29.9 in West 2.9 mph 9 mph 88% 0.03 in 188 W/m2
16:23 62.2 °F 58.6 °F 29.9 in WNW 4 mph 4 mph 88% 0.03 in 236 W/m2
16:28 62.2 °F 59 °F 29.9 in WNW 4 mph 7 mph 89% 0.03 in 264 W/m2
16:33 62.2 °F 58.6 °F 29.9 in WNW 2 mph 6 mph 88% 0.03 in 200 W/m2
16:38 62.2 °F 58.6 °F 29.9 in Calm   4 mph 88% 0.03 in 200 W/m2
16:43 62.4 °F 58.8 °F 29.9 in West 6 mph 8 mph 88% 0.02 in 234 W/m2
16:48 62.4 °F 58.5 °F 29.9 in West 2 mph 4 mph 87% 0.01 in 290 W/m2
16:53 62.6 °F 58.6 °F 29.9 in SW 4.9 mph 8 mph 87% 0.01 in 237 W/m2
16:58 62.6 °F 59 °F 29.9 in West 6.9 mph 10 mph 88% 0 in 174 W/m2
17:03 62.6 °F 59 °F 29.9 in NW 0.9 mph 3 mph 88% 0 in 135 W/m2
17:08 62.4 °F 58.8 °F 29.9 in NNW 0.9 mph 4 mph 88% 0 in 149 W/m2
17:26 62.4 °F 59.2 °F 29.9 in WNW 6.9 mph 8 mph 89% 0 in 130 W/m2
17:31 62.2 °F 59 °F 29.9 in NW 0.9 mph 3 mph 89% 0 in 139 W/m2
17:36 62.2 °F 59.2 °F 29.9 in West 2.9 mph 4 mph 90% 0 in 134 W/m2
17:53 62.1 °F 59.2 °F 29.9 in WSW 4.9 mph 7 mph 90% 0 in 174 W/m2
17:58 62.1 °F 58.8 °F 29.9 in West 2 mph 4 mph 89% 0 in 214 W/m2
18:03 62.1 °F 58.5 °F 29.9 in West 2.9 mph 7 mph 88% 0 in 227 W/m2
18:21 62.8 °F 58.8 °F 29.9 in WNW 2.9 mph 6 mph 87% 0 in 278 W/m2
18:27 63.1 °F 58.8 °F 29.9 in WSW 4.9 mph 5 mph 86% 0 in 221 W/m2
18:32 63.1 °F 58.8 °F 29.9 in WNW 2 mph 7 mph 86% 0 in 183 W/m2
18:37 63.1 °F 58.8 °F 29.9 in WSW 2.9 mph 5 mph 86% 0 in 167 W/m2
18:42 63.1 °F 58.8 °F 29.9 in West 2.9 mph 7 mph 86% 0 in 163 W/m2
18:47 63.1 °F 59.2 °F 29.9 in WSW 6 mph 8 mph 87% 0 in 153 W/m2
18:52 63.1 °F 59.2 °F 29.9 in WSW 2.9 mph 4 mph 87% 0 in 207 W/m2
18:57 63.3 °F 59 °F 29.9 in West 2 mph 7 mph 86% 0 in 186 W/m2
19:02 63.5 °F 59.5 °F 29.9 in WSW 0.9 mph 3 mph 87% 0 in 244 W/m2
19:07 64 °F 59.7 °F 29.9 in WSW 2.9 mph 6 mph 86% 0 in 339 W/m2
19:12 64.2 °F 59.5 °F 29.9 in WNW 2 mph 3 mph 85% 0 in 220 W/m2
19:17 64.8 °F 59.5 °F 29.9 in West 2.9 mph 7 mph 83% 0 in 163 W/m2
19:22 64.6 °F 59 °F 29.9 in Calm   4 mph 82% 0 in 209 W/m2
19:27 64.6 °F 59 °F 29.9 in WSW 4 mph 7 mph 82% 0 in 134 W/m2
19:32 64.2 °F 58.6 °F 29.9 in West 0.9 mph 4 mph 82% 0 in 90 W/m2
19:49 63 °F 58.5 °F 29.9 in WNW 2.9 mph 4 mph 85% 0 in 47 W/m2
19:55 62.8 °F 58.5 °F 29.9 in WSW 0.9 mph 3 mph 86% 0 in 39 W/m2
20:00 62.6 °F 58.6 °F 29.9 in Calm   1 mph 87% 0 in 35 W/m2
20:05 62.4 °F 58.8 °F 29.9 in Calm   1 mph 88% 0 in 42 W/m2
20:10 62.4 °F 59.2 °F 29.9 in Calm     89% 0 in 51 W/m2
20:15 62.2 °F 59.2 °F 29.9 in WSW 0.9 mph 1 mph 90% 0 in 37 W/m2
20:20 62.2 °F 59.2 °F 29.9 in WSW 0.9 mph 1 mph 90% 0 in 35 W/m2
20:25 62.1 °F 59.2 °F 29.9 in Calm   2 mph 90% 0 in 42 W/m2
20:30 62.1 °F 59.4 °F 29.9 in Calm   1 mph 91% 0 in 46 W/m2
20:35 62.1 °F 59.4 °F 29.9 in Calm   2 mph 91% 0 in 39 W/m2
20:40 62.1 °F 59.4 °F 29.9 in SE 0.9 mph 1 mph 91% 0 in 26 W/m2
20:45 62.1 °F 59.4 °F 29.9 in SE 0.9 mph 2 mph 91% 0 in 16 W/m2
20:50 61.9 °F 59.2 °F 29.9 in Calm   2 mph 91% 0 in 12 W/m2
20:55 61.5 °F 58.8 °F 29.9 in Calm   1 mph 91% 0 in 9 W/m2
21:14 61 °F 58.6 °F 29.9 in Calm   1 mph 92% 0 in 0 W/m2
21:19 60.6 °F 58.3 °F 29.9 in Calm   4 mph 92% 0 in 0 W/m2
21:24 60.6 °F 58.3 °F 29.9 in NW 2.9 mph 3 mph 92% 0 in 0 W/m2
21:29 60.4 °F 58.1 °F 29.9 in NW 4 mph 4 mph 92% 0 in 0 W/m2
21:34 60.4 °F 58.1 °F 29.9 in WNW 2 mph 4 mph 92% 0 in 0 W/m2
21:39 60.6 °F 58.3 °F 29.9 in NNW 0.9 mph 3 mph 92% 0 in 0 W/m2
21:44 60.6 °F 58.3 °F 29.9 in WNW 4 mph 4 mph 92% 0 in 0 W/m2
21:49 60.8 °F 58.5 °F 29.9 in West 2 mph 4 mph 92% 0 in 0 W/m2
21:54 60.6 °F 58.3 °F 29.9 in Calm   4 mph 92% 0 in 0 W/m2
21:59 60.6 °F 58.3 °F 29.9 in WSW 0.9 mph 1 mph 92% 0 in 0 W/m2
22:04 60.4 °F 58.1 °F 29.9 in WNW 2 mph 4 mph 92% 0 in 0 W/m2
22:09 60.4 °F 58.1 °F 29.9 in West 6 mph 6 mph 92% 0 in 0 W/m2
22:14 60.4 °F 58.1 °F 29.9 in WNW 2 mph 3 mph 92% 0.01 in 0 W/m2
22:19 60.3 °F 57.9 °F 29.9 in WNW 0.9 mph 4 mph 92% 0.02 in 0 W/m2
22:24 60.3 °F 58.3 °F 29.9 in West 2 mph 3 mph 93% 0.02 in 0 W/m2
22:29 60.1 °F 58.1 °F 29.9 in WNW 2 mph 4 mph 93% 0.02 in 0 W/m2
22:34 60.1 °F 58.1 °F 29.9 in NW 0.9 mph 4 mph 93% 0.02 in 0 W/m2
22:39 60.1 °F 58.1 °F 29.9 in West 2 mph 3 mph 93% 0.02 in 0 W/m2
22:44 60.1 °F 58.1 °F 29.9 in WNW 2.9 mph 3 mph 93% 0.02 in 0 W/m2
22:49 59.7 °F 57.7 °F 29.9 in NW 4.9 mph 9 mph 93% 0.02 in 0 W/m2
22:54 59.7 °F 57.4 °F 29.9 in West 6.9 mph 8 mph 92% 0.02 in 0 W/m2
22:59 59.7 °F 57.4 °F 29.9 in WNW 2.9 mph 9 mph 92% 0.02 in 0 W/m2
23:04 59.5 °F 57.2 °F 29.9 in WNW 2 mph 7 mph 92% 0.02 in 0 W/m2
23:09 59.5 °F 57.2 °F 29.9 in SW 4.9 mph 8 mph 92% 0.02 in 0 W/m2
23:14 59.4 °F 57 °F 29.9 in WSW 0.9 mph 8 mph 92% 0.01 in 0 W/m2
23:19 59.4 °F 57 °F 29.9 in WSW 4.9 mph 9 mph 92% 0 in 0 W/m2
23:24 59.4 °F 57 °F 29.9 in West 4 mph 8 mph 92% 0 in 0 W/m2
23:29 59.2 °F 56.8 °F 29.9 in WSW 4 mph 4 mph 92% 0 in 0 W/m2
23:34 59.2 °F 56.8 °F 29.9 in West 4 mph 7 mph 92% 0 in 0 W/m2
23:39 59.2 °F 57.2 °F 29.9 in WSW 6.9 mph 9 mph 93% 0 in 0 W/m2
23:44 59.2 °F 57.2 °F 29.9 in WNW 2.9 mph 6 mph 93% 0 in 0 W/m2
23:50 59.2 °F 57.2 °F 29.9 in West 9 mph 9 mph 93% 0 in 0 W/m2
23:55 59.2 °F 57.2 °F 29.9 in West 4 mph 4 mph 93% 0 in 0 W/m2
Juneau County Weather
Compliments of Weather Underground - 2 mb